createdAt,value
2023-01-21T00:00:44.112Z,25.80
2023-01-21T00:03:28.554Z,25.50
2023-01-21T00:06:01.625Z,31.90
2023-01-21T00:08:34.581Z,24.90
2023-01-21T00:11:14.849Z,29.50
2023-01-21T00:13:49.928Z,24.60
2023-01-21T00:16:24.936Z,25.10
2023-01-21T00:19:01.219Z,24.10
2023-01-21T00:21:34.616Z,38.50
2023-01-21T00:24:07.526Z,28.80
2023-01-21T00:26:44.899Z,24.90
2023-01-21T00:29:22.828Z,28.10
2023-01-21T00:32:02.741Z,24.20
2023-01-21T00:34:35.576Z,23.70
2023-01-21T00:37:08.116Z,22.70
2023-01-21T00:39:43.154Z,39.20
2023-01-21T00:42:15.785Z,31.90
2023-01-21T00:44:52.178Z,21.80
2023-01-21T00:47:24.634Z,22.10
2023-01-21T00:49:56.992Z,27.80
2023-01-21T00:52:29.430Z,29.80
2023-01-21T00:55:02.015Z,25.40
2023-01-21T00:57:34.704Z,27.90
2023-01-21T01:00:11.176Z,29.10
2023-01-21T01:02:47.370Z,29.20
2023-01-21T01:05:22.384Z,35.90
2023-01-21T01:07:54.791Z,33.60
2023-01-21T01:10:27.279Z,27.20
2023-01-21T01:13:00.893Z,34.50
2023-01-21T01:15:33.298Z,36.90
2023-01-21T01:18:05.742Z,24.40
2023-01-21T01:20:38.135Z,35.80
2023-01-21T01:23:10.660Z,37.80
2023-01-21T01:25:43.158Z,33.60
2023-01-21T01:28:15.519Z,29.60
2023-01-21T01:30:47.992Z,28.20
2023-01-21T01:33:20.485Z,39.40
2023-01-21T01:35:56.206Z,28.90
2023-01-21T01:38:28.657Z,33.40
2023-01-21T01:41:01.075Z,28.40
2023-01-21T01:43:54.875Z,23.00
2023-01-21T01:46:32.211Z,27.40
2023-01-21T01:49:14.670Z,25.60
2023-01-21T01:51:53.693Z,30.00
2023-01-21T01:54:30.319Z,23.10
2023-01-21T01:57:07.138Z,42.10
2023-01-21T01:59:40.648Z,34.40
2023-01-21T02:02:18.533Z,32.60
2023-01-21T02:04:56.607Z,26.00
2023-01-21T02:07:39.333Z,21.20
2023-01-21T02:10:14.522Z,25.70
2023-01-21T02:12:52.844Z,21.80
2023-01-21T02:15:33.737Z,22.40
2023-01-21T02:18:22.105Z,23.70
2023-01-21T02:21:26.552Z,42.00
2023-01-21T02:24:20.589Z,25.70
2023-01-21T02:27:29.954Z,20.40
2023-01-21T02:30:37.544Z,18.30
2023-01-21T02:33:42.154Z,20.90
2023-01-21T02:36:36.533Z,18.50
2023-01-21T02:39:21.823Z,24.30
2023-01-21T02:42:05.936Z,17.40
2023-01-21T02:44:42.720Z,18.60
2023-01-21T02:47:21.294Z,25.00
2023-01-21T02:49:57.785Z,25.20
2023-01-21T02:52:33.674Z,24.00
2023-01-21T02:55:09.324Z,18.90
2023-01-21T02:57:50.838Z,18.00
2023-01-21T03:00:30.307Z,26.50
2023-01-21T03:03:35.467Z,16.60
2023-01-21T03:06:42.683Z,17.10
2023-01-21T03:09:25.162Z,14.60
2023-01-21T03:12:33.887Z,18.60
2023-01-21T03:15:31.537Z,14.80
2023-01-21T03:18:20.757Z,16.30
2023-01-21T03:20:58.776Z,12.30
2023-01-21T03:23:40.202Z,16.80
2023-01-21T03:26:16.365Z,14.00
2023-01-21T03:28:54.098Z,12.90
2023-01-21T03:31:30.221Z,10.90
2023-01-21T03:34:08.046Z,13.50
2023-01-21T03:36:48.913Z,15.20
2023-01-21T03:39:31.640Z,14.70
2023-01-21T03:42:04.973Z,12.40
2023-01-21T03:44:37.994Z,14.50
2023-01-21T03:47:17.780Z,12.80
2023-01-21T03:49:55.530Z,14.20
2023-01-21T03:52:29.702Z,16.50
2023-01-21T03:55:02.077Z,18.70
2023-01-21T03:57:34.484Z,18.50
2023-01-21T04:00:09.263Z,13.60
2023-01-21T04:02:44.192Z,12.30
2023-01-21T04:05:16.910Z,16.00
2023-01-21T04:07:49.379Z,15.30
2023-01-21T04:10:21.867Z,14.70
2023-01-21T04:12:54.285Z,14.70
2023-01-21T04:15:26.806Z,15.90
2023-01-21T04:17:59.228Z,16.00
2023-01-21T04:20:33.580Z,16.90
2023-01-21T04:23:06.323Z,13.60
2023-01-21T04:25:38.900Z,14.30
2023-01-21T04:28:11.300Z,13.40
2023-01-21T04:30:43.742Z,14.70
2023-01-21T04:33:16.831Z,13.50
2023-01-21T04:35:49.139Z,19.10
2023-01-21T04:38:21.854Z,18.70
2023-01-21T04:40:57.076Z,18.90
2023-01-21T04:43:29.880Z,16.80
2023-01-21T04:46:02.810Z,14.20
2023-01-21T04:48:35.651Z,17.60
2023-01-21T04:51:08.630Z,19.40
2023-01-21T04:53:41.628Z,23.80
2023-01-21T04:56:14.234Z,28.00
2023-01-21T04:58:46.899Z,22.50
2023-01-21T05:01:20.179Z,23.30
2023-01-21T05:03:52.605Z,14.30
2023-01-21T05:06:24.974Z,16.00
2023-01-21T05:08:57.424Z,13.30
2023-01-21T05:11:32.591Z,14.30
2023-01-21T05:14:04.899Z,11.30
2023-01-21T05:16:37.709Z,18.00
2023-01-21T05:19:10.254Z,14.00
2023-01-21T05:21:43.032Z,13.10
2023-01-21T05:24:15.529Z,13.80
2023-01-21T05:26:49.805Z,13.20
2023-01-21T05:29:23.552Z,12.40
2023-01-21T05:31:58.814Z,12.90
2023-01-21T05:34:31.036Z,15.40
2023-01-21T05:37:03.435Z,13.00
2023-01-21T05:39:35.881Z,12.00
2023-01-21T05:42:10.558Z,13.40
2023-01-21T05:44:42.955Z,13.30
2023-01-21T05:47:15.460Z,29.50
2023-01-21T05:49:47.790Z,14.10
2023-01-21T05:52:22.973Z,14.20
2023-01-21T05:55:01.817Z,21.60
2023-01-21T05:57:35.609Z,14.00
2023-01-21T06:00:09.959Z,15.50
2023-01-21T06:02:42.416Z,12.80
2023-01-21T06:05:16.165Z,11.30
2023-01-21T06:07:48.520Z,13.00
2023-01-21T06:10:21.815Z,13.70
2023-01-21T06:12:54.737Z,9.60
2023-01-21T06:15:29.675Z,10.20
2023-01-21T06:18:02.466Z,10.80
2023-01-21T06:20:34.971Z,12.20
2023-01-21T06:23:07.406Z,11.30
2023-01-21T06:25:40.863Z,11.70
2023-01-21T06:28:14.120Z,11.80
2023-01-21T06:30:46.939Z,25.00
2023-01-21T06:33:19.395Z,13.90
2023-01-21T06:35:52.271Z,17.30
2023-01-21T06:38:24.571Z,15.70
2023-01-21T06:40:56.977Z,12.60
2023-01-21T06:43:32.055Z,12.50
2023-01-21T06:46:04.474Z,14.10
2023-01-21T06:48:36.838Z,15.40
2023-01-21T06:51:09.355Z,12.60
2023-01-21T06:53:41.770Z,12.60
2023-01-21T06:56:14.049Z,14.10
2023-01-21T06:58:46.545Z,14.30
2023-01-21T07:01:19.984Z,11.80
2023-01-21T07:03:52.552Z,16.20
2023-01-21T07:06:25.618Z,12.20
2023-01-21T07:08:57.970Z,13.10
2023-01-21T07:11:30.413Z,12.40
2023-01-21T07:14:02.804Z,17.20
2023-01-21T07:16:35.468Z,15.70
2023-01-21T07:19:08.107Z,15.90
2023-01-21T07:21:42.063Z,17.80
2023-01-21T07:24:15.291Z,18.90
2023-01-21T07:26:48.582Z,24.60
2023-01-21T07:29:23.360Z,22.60
2023-01-21T07:31:55.836Z,15.70
2023-01-21T07:34:28.166Z,20.00
2023-01-21T07:37:00.453Z,19.70
2023-01-21T07:39:33.121Z,13.30
2023-01-21T07:42:09.754Z,16.90
2023-01-21T07:44:42.615Z,15.50
2023-01-21T07:47:15.093Z,16.40
2023-01-21T07:49:50.194Z,16.80
2023-01-21T07:52:24.433Z,18.10
2023-01-21T07:54:56.988Z,16.70
2023-01-21T07:57:29.918Z,14.70
2023-01-21T08:00:05.086Z,17.40
2023-01-21T08:02:45.453Z,15.40
2023-01-21T08:05:18.796Z,15.10
2023-01-21T08:07:51.733Z,18.60
2023-01-21T08:10:24.036Z,13.40
2023-01-21T08:12:56.420Z,21.30
2023-01-21T08:15:29.234Z,28.40
2023-01-21T08:18:01.576Z,15.50
2023-01-21T08:20:34.533Z,19.90
2023-01-21T08:23:08.512Z,21.40
2023-01-21T08:25:41.808Z,21.80
2023-01-21T08:28:16.426Z,18.20
2023-01-21T08:30:49.335Z,23.10
2023-01-21T08:33:21.884Z,18.40
2023-01-21T08:35:54.581Z,17.50
2023-01-21T08:38:26.927Z,41.60
2023-01-21T08:41:00.575Z,18.30
2023-01-21T08:43:33.349Z,24.90
2023-01-21T08:46:06.272Z,24.50
2023-01-21T08:48:40.188Z,17.60
2023-01-21T08:51:14.393Z,19.40
2023-01-21T08:53:49.432Z,15.20
2023-01-21T08:56:21.974Z,16.60
2023-01-21T08:59:02.513Z,17.70
2023-01-21T09:01:36.287Z,20.40
2023-01-21T09:04:08.747Z,15.90
2023-01-21T09:06:41.410Z,19.70
2023-01-21T09:09:14.378Z,25.50
2023-01-21T09:11:46.950Z,19.30
2023-01-21T09:14:19.756Z,17.70
2023-01-21T09:16:52.323Z,20.60
2023-01-21T09:19:25.133Z,14.20
2023-01-21T09:21:59.208Z,16.00
2023-01-21T09:24:31.706Z,19.00
2023-01-21T09:27:07.042Z,17.30
2023-01-21T09:29:39.722Z,14.00
2023-01-21T09:32:12.447Z,13.40
2023-01-21T09:34:44.787Z,19.10
2023-01-21T09:37:20.090Z,18.30
2023-01-21T09:39:52.414Z,18.20
2023-01-21T09:42:29.300Z,23.30
2023-01-21T09:45:02.897Z,22.80
2023-01-21T09:47:39.350Z,23.80
2023-01-21T09:50:16.700Z,22.20
2023-01-21T09:52:52.171Z,28.90
2023-01-21T09:55:29.041Z,18.70
2023-01-21T09:58:21.281Z,19.80
2023-01-21T10:00:59.020Z,22.30
2023-01-21T10:03:39.454Z,28.10
2023-01-21T10:06:27.889Z,23.30
2023-01-21T10:09:15.208Z,26.20
2023-01-21T10:11:58.478Z,32.70
2023-01-21T10:14:51.901Z,27.20
2023-01-21T10:17:38.274Z,30.30
2023-01-21T10:20:23.257Z,22.80
2023-01-21T10:23:01.835Z,20.30
2023-01-21T10:25:37.641Z,17.80
2023-01-21T10:28:17.938Z,51.40
2023-01-21T10:30:53.505Z,31.40
2023-01-21T10:33:28.309Z,29.40
2023-01-21T10:36:29.611Z,27.60
2023-01-21T10:39:09.971Z,26.10
2023-01-21T10:41:56.120Z,21.60
2023-01-21T10:44:35.816Z,25.20
2023-01-21T10:47:18.590Z,34.90
2023-01-21T10:50:03.663Z,22.50
2023-01-21T10:52:45.443Z,28.50
2023-01-21T10:55:29.971Z,35.90
2023-01-21T10:58:11.394Z,30.30
2023-01-21T11:00:47.442Z,34.10
2023-01-21T11:03:31.050Z,32.70
2023-01-21T11:06:07.013Z,32.90
2023-01-21T11:08:41.220Z,42.90
2023-01-21T11:11:21.984Z,50.80
2023-01-21T11:13:54.355Z,33.30
2023-01-21T11:16:38.381Z,42.80
2023-01-21T11:19:13.132Z,42.10
2023-01-21T11:22:01.314Z,31.30
2023-01-21T11:24:43.151Z,34.50
2023-01-21T11:27:32.264Z,35.20
2023-01-21T11:30:20.833Z,32.30
2023-01-21T11:33:14.467Z,33.40
2023-01-21T11:35:47.151Z,42.40
2023-01-21T11:38:37.395Z,39.20
2023-01-21T11:41:19.221Z,42.10
2023-01-21T11:43:54.071Z,30.70
2023-01-21T11:46:36.487Z,25.40
2023-01-21T11:49:30.022Z,30.50
2023-01-21T11:52:20.890Z,26.40
2023-01-21T11:54:53.562Z,31.50
2023-01-21T11:57:31.961Z,31.20
2023-01-21T12:00:18.158Z,32.00
2023-01-21T12:02:54.662Z,34.10
2023-01-21T12:05:33.461Z,35.90
2023-01-21T12:08:08.346Z,35.20
2023-01-21T12:10:47.350Z,34.70
2023-01-21T12:13:23.046Z,29.10
2023-01-21T12:16:28.629Z,25.00
2023-01-21T12:19:34.680Z,30.80
2023-01-21T12:22:37.319Z,29.20
2023-01-21T12:28:11.717Z,24.20
2023-01-21T12:30:55.090Z,24.20
2023-01-21T12:33:46.098Z,25.50
2023-01-21T12:36:28.257Z,26.20
2023-01-21T12:39:14.605Z,27.20
2023-01-21T12:41:51.925Z,23.70
2023-01-21T12:44:33.862Z,32.30
2023-01-21T12:47:12.233Z,31.00
2023-01-21T12:50:01.367Z,30.50
2023-01-21T12:52:40.065Z,29.10
2023-01-21T12:55:19.884Z,29.90
2023-01-21T12:57:59.267Z,28.00
2023-01-21T13:00:38.263Z,28.20
2023-01-21T13:03:28.276Z,31.50
2023-01-21T13:06:04.513Z,30.60
2023-01-21T13:08:57.936Z,33.40
2023-01-21T13:11:36.126Z,30.20
2023-01-21T13:14:29.614Z,29.20
2023-01-21T13:17:07.842Z,37.80
2023-01-21T13:19:42.594Z,37.90
2023-01-21T13:22:28.870Z,50.30
2023-01-21T13:25:14.145Z,51.30
2023-01-21T13:27:53.527Z,43.30
2023-01-21T13:30:37.443Z,47.70
2023-01-21T13:33:24.996Z,55.80
2023-01-21T13:36:10.843Z,83.00
2023-01-21T13:38:51.441Z,50.20
2023-01-21T13:44:29.346Z,35.30
2023-01-21T13:47:19.157Z,38.10
2023-01-21T13:50:09.368Z,42.00
2023-01-21T13:52:52.586Z,39.40
2023-01-21T13:55:39.593Z,33.20
2023-01-21T13:58:14.429Z,34.40
2023-01-21T14:00:54.690Z,34.40
2023-01-21T14:03:35.545Z,32.50
2023-01-21T14:06:12.855Z,33.10
2023-01-21T14:08:49.473Z,32.40
2023-01-21T14:11:25.849Z,34.50
2023-01-21T14:14:21.168Z,34.70
2023-01-21T14:17:29.298Z,33.90
2023-01-21T14:20:40.802Z,32.30
2023-01-21T14:23:42.536Z,30.90
2023-01-21T14:26:29.245Z,34.80
2023-01-21T14:29:09.952Z,35.90
2023-01-21T14:31:47.408Z,32.00
2023-01-21T14:34:26.970Z,34.10
2023-01-21T14:37:07.353Z,70.30
2023-01-21T14:39:52.620Z,50.30
2023-01-21T14:42:43.879Z,48.00
2023-01-21T14:45:17.764Z,38.40
2023-01-21T14:47:53.598Z,38.20
2023-01-21T14:50:52.454Z,38.80
2023-01-21T14:53:27.880Z,82.90
2023-01-21T14:56:16.689Z,78.60
2023-01-21T14:58:52.001Z,66.00
2023-01-21T15:01:38.514Z,94.30
2023-01-21T15:04:25.797Z,69.30
2023-01-21T15:07:00.564Z,64.90
2023-01-21T15:09:39.695Z,56.70
2023-01-21T15:12:21.077Z,65.40
2023-01-21T15:14:57.034Z,80.10
2023-01-21T15:18:03.451Z,156.90
2023-01-21T15:20:50.514Z,130.70
2023-01-21T15:23:38.916Z,165.30
2023-01-21T15:26:42.460Z,80.60
2023-01-21T15:29:35.815Z,81.70
2023-01-21T15:32:27.574Z,68.70
2023-01-21T15:35:02.781Z,48.30
2023-01-21T15:37:40.397Z,43.00
2023-01-21T15:40:20.849Z,43.20
2023-01-21T15:43:01.906Z,43.70
2023-01-21T15:45:44.217Z,45.40
2023-01-21T15:48:49.640Z,46.00
2023-01-21T15:51:34.218Z,44.60
2023-01-21T15:54:21.716Z,46.00
2023-01-21T15:57:09.165Z,50.90
2023-01-21T16:00:04.275Z,57.20
2023-01-21T16:02:52.239Z,41.10
2023-01-21T16:05:32.835Z,43.30
2023-01-21T16:08:18.990Z,45.20
2023-01-21T16:11:03.482Z,48.60
2023-01-21T16:13:48.417Z,44.80
2023-01-21T16:16:34.485Z,59.00
2023-01-21T16:19:13.646Z,54.50
2023-01-21T16:21:50.506Z,54.20
2023-01-21T16:24:27.466Z,55.30
2023-01-21T16:27:19.150Z,47.70
2023-01-21T16:29:57.850Z,50.30
2023-01-21T16:32:32.506Z,47.90
2023-01-21T16:35:05.775Z,49.90
2023-01-21T16:37:38.377Z,50.10
2023-01-21T16:40:30.488Z,50.20
2023-01-21T16:43:22.778Z,50.40
2023-01-21T16:45:57.116Z,48.00
2023-01-21T16:48:32.991Z,53.10
2023-01-21T16:51:05.789Z,44.20
2023-01-21T16:53:38.210Z,52.50
2023-01-21T16:56:27.312Z,49.90
2023-01-21T16:58:59.592Z,53.60
2023-01-21T17:01:32.879Z,48.40
2023-01-21T17:04:05.775Z,49.10
2023-01-21T17:06:38.419Z,53.00
2023-01-21T17:09:26.261Z,49.00
2023-01-21T17:12:02.447Z,51.20
2023-01-21T17:14:36.419Z,48.00
2023-01-21T17:17:10.475Z,59.40
2023-01-21T17:19:45.361Z,68.70
2023-01-21T17:22:22.027Z,59.30
2023-01-21T17:25:03.856Z,62.00
2023-01-21T17:27:39.025Z,63.90
2023-01-21T17:30:32.187Z,64.40
2023-01-21T17:33:07.374Z,57.70
2023-01-21T17:35:59.704Z,61.90
2023-01-21T17:38:32.192Z,57.40
2023-01-21T17:41:08.330Z,60.10
2023-01-21T17:43:49.047Z,63.10
2023-01-21T17:46:23.160Z,59.30
2023-01-21T17:49:02.002Z,58.70
2023-01-21T17:51:35.056Z,60.30
2023-01-21T17:54:09.518Z,62.60
2023-01-21T17:56:49.609Z,55.40
2023-01-21T17:59:38.018Z,60.00
2023-01-21T18:02:15.175Z,54.20
2023-01-21T18:04:47.526Z,54.70
2023-01-21T18:07:24.859Z,64.80
2023-01-21T18:10:00.502Z,94.60
2023-01-21T18:12:33.033Z,106.20
2023-01-21T18:15:05.605Z,106.10
2023-01-21T18:17:46.665Z,107.50
2023-01-21T18:20:21.601Z,96.90
2023-01-21T18:22:57.084Z,99.90
2023-01-21T18:25:30.140Z,110.30
2023-01-21T18:28:02.871Z,115.40
2023-01-21T18:30:35.500Z,121.70
2023-01-21T18:33:07.968Z,141.00
2023-01-21T18:35:41.350Z,143.30
2023-01-21T18:38:16.210Z,133.40
2023-01-21T18:40:49.246Z,162.10
2023-01-21T18:43:21.745Z,152.80
2023-01-21T18:45:54.760Z,141.60
2023-01-21T18:48:32.171Z,140.50
2023-01-21T18:51:04.788Z,143.00
2023-01-21T18:53:37.151Z,142.00
2023-01-21T18:56:13.910Z,146.40
2023-01-21T18:58:46.362Z,144.40
2023-01-21T19:01:23.520Z,153.30
2023-01-21T19:03:58.320Z,147.00
2023-01-21T19:06:30.605Z,158.20
2023-01-21T19:09:02.966Z,182.90
2023-01-21T19:11:35.393Z,159.90
2023-01-21T19:14:07.757Z,163.20
2023-01-21T19:16:41.009Z,149.80
2023-01-21T19:19:16.022Z,165.80
2023-01-21T19:21:48.655Z,160.70
2023-01-21T19:24:21.922Z,167.70
2023-01-21T19:26:54.685Z,154.30
2023-01-21T19:29:35.417Z,154.70
2023-01-21T19:32:14.479Z,160.40
2023-01-21T19:34:47.241Z,174.00
2023-01-21T19:37:23.667Z,174.30
2023-01-21T19:39:56.056Z,139.00
2023-01-21T19:42:28.327Z,161.70
2023-01-21T19:45:00.631Z,205.60
2023-01-21T19:47:38.265Z,216.00
2023-01-21T19:50:17.826Z,212.50
2023-01-21T19:52:52.719Z,199.70
2023-01-21T19:55:26.645Z,179.80
2023-01-21T19:58:02.102Z,195.20
2023-01-21T20:00:36.457Z,201.80
2023-01-21T20:03:10.406Z,210.40
2023-01-21T20:05:43.371Z,197.10
2023-01-21T20:08:20.171Z,176.40
2023-01-21T20:10:53.043Z,197.80
2023-01-21T20:13:26.349Z,175.10
2023-01-21T20:16:02.700Z,185.50
2023-01-21T20:18:35.251Z,177.00
2023-01-21T20:21:07.997Z,187.70
2023-01-21T20:23:40.344Z,178.50
2023-01-21T20:26:18.287Z,177.50
2023-01-21T20:28:54.484Z,173.20
2023-01-21T20:31:27.405Z,172.40
2023-01-21T20:33:59.960Z,170.60
2023-01-21T20:36:32.577Z,154.50
2023-01-21T20:39:05.204Z,153.80
2023-01-21T20:41:41.138Z,141.90
2023-01-21T20:44:13.491Z,141.50
2023-01-21T20:46:45.900Z,152.10
2023-01-21T20:49:18.533Z,147.80
2023-01-21T20:51:50.984Z,154.00
2023-01-21T20:54:24.869Z,152.70
2023-01-21T20:56:57.130Z,129.10
2023-01-21T20:59:29.521Z,129.90
2023-01-21T21:02:01.962Z,130.00
2023-01-21T21:04:34.446Z,132.00
2023-01-21T21:07:06.716Z,124.00
2023-01-21T21:09:39.922Z,122.20
2023-01-21T21:12:12.550Z,120.00
2023-01-21T21:14:44.946Z,136.30
2023-01-21T21:17:17.283Z,154.70
2023-01-21T21:19:50.072Z,147.80
2023-01-21T21:22:22.416Z,142.20
2023-01-21T21:24:55.015Z,145.30
2023-01-21T21:27:27.431Z,143.10
2023-01-21T21:29:59.731Z,147.20
2023-01-21T21:32:32.296Z,153.10
2023-01-21T21:35:04.598Z,149.10
2023-01-21T21:37:37.047Z,134.70
2023-01-21T21:40:12.082Z,115.70
2023-01-21T21:43:02.156Z,121.20
2023-01-21T21:45:34.778Z,120.80
2023-01-21T21:48:32.340Z,129.30
2023-01-21T21:51:04.968Z,129.40
2023-01-21T21:53:37.366Z,124.70
2023-01-21T21:56:18.420Z,120.50
2023-01-21T22:02:06.630Z,134.50
2023-01-21T22:04:42.774Z,139.70
2023-01-21T22:07:15.264Z,131.30
2023-01-21T22:09:47.594Z,132.00
2023-01-21T22:12:19.889Z,130.30
2023-01-21T22:14:52.408Z,142.70
2023-01-21T22:17:24.975Z,135.30
2023-01-21T22:19:57.283Z,133.30
2023-01-21T22:22:29.687Z,135.50
2023-01-21T22:25:04.200Z,145.70
2023-01-21T22:27:36.599Z,157.20
2023-01-21T22:30:11.007Z,135.00
2023-01-21T22:32:45.845Z,120.80
2023-01-21T22:35:18.452Z,112.00
2023-01-21T22:37:54.090Z,122.10
2023-01-21T22:40:26.420Z,134.60
2023-01-21T22:42:58.910Z,121.10
2023-01-21T22:45:31.301Z,116.30
2023-01-21T22:48:03.902Z,109.10
2023-01-21T22:50:40.964Z,105.10
2023-01-21T22:53:13.407Z,124.70
2023-01-21T22:55:45.892Z,105.60
2023-01-21T22:58:19.823Z,113.40
2023-01-21T23:00:53.414Z,132.20
2023-01-21T23:03:27.087Z,132.20
2023-01-21T23:06:05.630Z,108.90
2023-01-21T23:08:39.051Z,92.00
2023-01-21T23:11:15.855Z,94.00
2023-01-21T23:13:49.291Z,90.10
2023-01-21T23:16:22.871Z,101.80
2023-01-21T23:18:55.188Z,103.50
2023-01-21T23:21:29.993Z,99.00
2023-01-21T23:24:02.405Z,105.90
2023-01-21T23:26:34.852Z,104.10
2023-01-21T23:29:07.218Z,102.40
2023-01-21T23:31:42.263Z,108.80
2023-01-21T23:34:16.789Z,111.80
2023-01-21T23:36:50.627Z,124.80
2023-01-21T23:39:22.989Z,111.30
2023-01-21T23:41:56.062Z,104.70
2023-01-21T23:44:28.630Z,104.80
2023-01-21T23:47:01.131Z,104.10
2023-01-21T23:49:33.623Z,104.10
2023-01-21T23:52:08.575Z,90.50
2023-01-21T23:54:41.070Z,91.90
2023-01-21T23:57:21.562Z,95.80
